Time;durP1;ratioP1;P1;durP2;ratioP2;P2;SDS_P1;SDS_P2;PMS_P1;PMS_P2;Temp;Humidity;BMP_temperature;BMP_pressure;BME280_temperature;BME280_humidity;BME280_pressure;Samples;Min_cycle;Max_cycle;Signal;HPM_P1;HPM_P2
2022/10/06 00:04:21;;;;;;;0.30;0.30;;;14.00;99.90;13.90;102067.00;;;;5074627;28;20235;-77
2022/10/06 00:10:48;;;;;;;0.47;0.40;;;14.00;99.90;14.10;102086.00;;;;5075400;28;20196;-76
2022/10/06 00:13:38;;;;;;;0.20;0.20;;;14.00;99.90;13.70;102064.00;;;;5059193;28;20216;-79
2022/10/06 00:16:52;;;;;;;0.20;0.20;;;13.80;99.90;13.80;102107.00;;;;5074050;28;20228;-78
2022/10/06 00:19:21;;;;;;;0.20;0.20;;;13.80;99.90;13.70;102109.00;;;;5074280;28;20188;-78
2022/10/06 00:21:52;;;;;;;0.33;0.33;;;13.70;99.90;14.00;102114.00;;;;5075283;28;20184;-79
2022/10/06 00:24:38;;;;;;;1.03;1.03;;;13.70;99.90;13.90;102115.00;;;;5057599;28;20245;-78
2022/10/06 00:27:34;;;;;;;0.33;0.30;;;13.70;99.90;13.80;102129.00;;;;5073562;28;20193;-78
2022/10/06 00:30:26;;;;;;;0.30;0.30;;;13.70;99.90;13.60;102151.00;;;;5057311;28;20192;-76
2022/10/06 00:33:34;;;;;;;10.47;0.87;;;13.50;99.90;13.60;102091.00;;;;5057194;28;20230;-77
2022/10/06 00:36:42;;;;;;;0.20;0.20;;;13.50;99.90;13.50;102102.00;;;;5074327;28;20239;-76
2022/10/06 00:39:46;;;;;;;0.20;0.20;;;13.50;99.90;13.40;102157.00;;;;5056948;28;20181;-76
2022/10/06 00:42:56;;;;;;;1.07;0.87;;;13.30;99.90;13.60;102167.00;;;;5056874;28;20196;-76
2022/10/06 00:46:06;;;;;;;0.30;0.30;;;13.40;99.90;13.30;102165.00;;;;5073283;28;20297;-76
2022/10/06 00:49:19;;;;;;;0.30;0.30;;;13.30;99.90;13.50;102179.00;;;;5056940;28;20197;-76
2022/10/06 00:52:28;;;;;;;0.20;0.20;;;13.40;99.90;13.40;102178.00;;;;5073733;28;20561;-78
2022/10/06 00:55:44;;;;;;;0.20;0.20;;;13.30;99.90;13.70;102178.00;;;;5072470;28;20296;-78
2022/10/06 00:58:50;;;;;;;5.60;0.70;;;13.40;99.90;13.30;102181.00;;;;5058240;28;20281;-78
2022/10/06 01:01:58;;;;;;;0.20;0.20;;;13.20;99.90;13.20;102197.00;;;;5056458;28;20230;-78
2022/10/06 01:04:52;;;;;;;0.20;0.20;;;13.10;99.90;13.60;102160.00;;;;5073328;28;20189;-78
2022/10/06 01:07:56;;;;;;;0.60;0.60;;;13.20;99.90;13.00;102208.00;;;;5073143;28;20237;-78
2022/10/06 01:10:30;;;;;;;0.20;0.20;;;13.00;99.90;13.10;102147.00;;;;5060530;28;20191;-75
2022/10/06 01:13:20;;;;;;;0.30;0.30;;;12.90;99.90;13.50;102219.00;;;;5056409;28;20238;-76
2022/10/06 01:16:15;;;;;;;0.90;0.90;;;13.00;99.90;13.50;102223.00;;;;5050878;28;20222;-75
2022/10/06 01:19:12;;;;;;;0.20;0.20;;;13.20;99.90;13.40;102220.00;;;;5073006;28;20189;-75
2022/10/06 01:22:28;;;;;;;0.33;0.33;;;13.00;99.90;12.90;102226.00;;;;5056563;28;20249;-76
2022/10/06 01:25:14;;;;;;;1.07;1.07;;;12.90;99.90;13.20;102233.00;;;;5056210;28;20196;-76
2022/10/06 01:27:54;;;;;;;0.20;0.20;;;13.00;99.90;13.40;102227.00;;;;5056185;28;20238;-76
2022/10/06 01:31:07;;;;;;;0.40;0.40;;;12.90;99.90;13.50;102232.00;;;;5072686;28;20222;-76
2022/10/06 01:33:56;;;;;;;0.20;0.20;;;12.90;99.90;13.20;102237.00;;;;5073031;28;20210;-75
2022/10/06 01:36:42;;;;;;;2.23;0.77;;;13.00;99.90;13.30;102240.00;;;;5063494;28;20195;-75
2022/10/06 01:39:31;;;;;;;0.20;0.20;;;12.90;99.90;13.00;102227.00;;;;5054510;28;20198;-75
2022/10/06 01:42:38;;;;;;;0.20;0.20;;;12.80;99.90;12.80;102247.00;;;;5041770;28;20639;-75
2022/10/06 01:45:32;;;;;;;0.20;0.20;;;12.70;99.90;12.90;102245.00;;;;5071994;28;20289;-75
2022/10/06 01:48:22;;;;;;;0.20;0.20;;;12.70;99.90;12.90;102188.00;;;;5072648;28;20274;-76
2022/10/06 01:51:15;;;;;;;1.17;0.40;;;12.70;99.90;13.00;102253.00;;;;5055783;28;20187;-75
2022/10/06 01:53:46;;;;;;;1.13;0.60;;;12.60;99.90;12.80;102246.00;;;;5055915;28;20631;-77
2022/10/06 01:56:50;;;;;;;0.20;0.20;;;12.60;99.90;12.70;102242.00;;;;5055986;28;20603;-77
2022/10/06 01:59:56;;;;;;;0.20;0.20;;;12.50;99.90;12.50;102245.00;;;;5059842;28;20636;-77
2022/10/06 02:03:06;;;;;;;0.20;0.20;;;12.50;99.90;12.50;102245.00;;;;5055429;28;20635;-77
2022/10/06 02:05:58;;;;;;;0.20;0.20;;;12.40;99.90;12.70;102251.00;;;;5072653;28;20263;-76
2022/10/06 02:08:57;;;;;;;0.20;0.20;;;12.40;99.90;12.50;102263.00;;;;5034680;28;20561;-76
2022/10/06 02:12:05;;;;;;;0.20;0.20;;;12.50;99.90;12.40;102271.00;;;;5072186;28;20183;-77
2022/10/06 02:14:53;;;;;;;0.83;0.83;;;12.30;99.90;12.70;102210.00;;;;5056358;28;20623;-78
2022/10/06 02:18:00;;;;;;;0.20;0.20;;;12.40;99.90;12.30;102278.00;;;;5073365;28;20198;-78
2022/10/06 02:21:11;;;;;;;1.13;1.13;;;12.30;99.90;12.70;102222.00;;;;5069619;28;20249;-77
2022/10/06 02:24:05;;;;;;;0.20;0.20;;;12.30;99.90;13.30;102289.00;;;;5054756;28;20184;-77
2022/10/06 02:26:58;;;;;;;0.20;0.20;;;12.70;99.90;13.10;102226.00;;;;5055710;28;20650;-76
2022/10/06 02:30:04;;;;;;;0.20;0.20;;;12.60;99.90;12.40;102291.00;;;;5071737;28;20179;-75
2022/10/06 02:33:14;;;;;;;0.20;0.20;;;12.50;99.90;12.50;102295.00;;;;5086219;28;20581;-76
2022/10/06 02:36:27;;;;;;;0.20;0.20;;;12.30;99.90;11.70;102305.00;;;;5072310;28;20666;-77
2022/10/06 02:39:30;;;;;;;0.20;0.20;;;12.10;99.90;12.00;102283.00;;;;5053790;28;20202;-76
2022/10/06 02:42:05;;;;;;;0.50;0.50;;;12.00;99.90;12.30;102297.00;;;;5071919;28;20527;-77
2022/10/06 02:45:14;;;;;;;0.20;0.20;;;12.00;99.90;12.50;102310.00;;;;5071672;28;20180;-77
2022/10/06 02:48:01;;;;;;;1.30;1.30;;;12.30;99.90;12.10;102317.00;;;;5071779;28;20185;-76
2022/10/06 02:54:01;;;;;;;0.20;0.20;;;12.00;99.90;12.20;102318.00;;;;5057633;28;20764;-76
2022/10/06 02:57:02;;;;;;;0.30;0.30;;;12.10;99.90;12.00;102304.00;;;;5055924;28;20269;-77
2022/10/06 02:59:34;;;;;;;2.10;0.60;;;12.00;99.90;11.90;102313.00;;;;5054751;28;20185;-77
2022/10/06 03:02:28;;;;;;;0.20;0.20;;;11.90;99.90;12.60;102307.00;;;;5071770;28;20231;-76
2022/10/06 03:05:21;;;;;;;1.10;0.60;;;12.10;99.90;12.30;102320.00;;;;5071753;28;20235;-76
2022/10/06 03:07:56;;;;;;;0.20;0.20;;;12.10;99.90;12.40;102331.00;;;;5010637;28;20193;-77
2022/10/06 03:11:02;;;;;;;0.30;0.30;;;12.10;99.90;12.50;102332.00;;;;4994449;28;20221;-76
2022/10/06 03:13:32;;;;;;;0.27;0.27;;;12.10;99.90;12.20;102344.00;;;;4994884;28;20262;-76
2022/10/06 03:19:42;;;;;;;0.77;0.77;;;12.30;99.90;12.20;102343.00;;;;5064996;28;20189;-76
2022/10/06 03:22:32;;;;;;;0.20;0.20;;;12.10;99.90;11.90;102358.00;;;;5058303;28;20181;-76
2022/10/06 03:25:28;;;;;;;0.20;0.20;;;11.90;99.90;12.30;102354.00;;;;5057839;28;20193;-76
2022/10/06 03:28:39;;;;;;;0.20;0.20;;;12.00;99.90;12.30;102341.00;;;;5067042;28;20233;-77
2022/10/06 03:31:57;;;;;;;0.20;0.20;;;12.00;99.90;12.50;102322.00;;;;5074802;28;20178;-75
2022/10/06 03:35:04;;;;;;;0.20;0.20;;;12.00;99.90;12.60;102357.00;;;;5058593;28;20194;-76
2022/10/06 03:37:52;;;;;;;0.30;0.30;;;12.10;99.90;12.60;102373.00;;;;5074671;28;20174;-77
2022/10/06 03:40:28;;;;;;;0.20;0.20;;;12.10;99.90;12.10;102358.00;;;;5058609;28;20654;-77
2022/10/06 03:43:41;;;;;;;0.20;0.20;;;12.00;99.90;12.70;102385.00;;;;5075095;28;20205;-76
2022/10/06 03:46:33;;;;;;;0.20;0.20;;;12.00;99.90;12.70;102392.00;;;;5074882;28;20189;-76
2022/10/06 03:49:37;;;;;;;0.20;0.20;;;12.10;99.90;13.00;102402.00;;;;5075232;28;20186;-75
2022/10/06 03:52:23;;;;;;;0.30;0.30;;;12.20;99.90;13.00;102391.00;;;;5074434;28;20661;-75
2022/10/06 03:55:14;;;;;;;0.20;0.20;;;12.30;99.90;12.10;102409.00;;;;5074792;28;20174;-75
2022/10/06 03:58:09;;;;;;;0.20;0.20;;;12.10;99.90;11.80;102396.00;;;;5074784;28;20185;-74
2022/10/06 04:01:25;;;;;;;0.20;0.20;;;11.80;99.90;11.60;102407.00;;;;5074263;28;20687;-74
2022/10/06 04:04:10;;;;;;;0.20;0.20;;;11.60;99.90;11.70;102411.00;;;;5054314;28;20277;-74
2022/10/06 04:07:01;;;;;;;2.70;1.57;;;11.50;99.90;11.90;102415.00;;;;5073750;28;20597;-75
2022/10/06 04:10:22;;;;;;;1.53;0.60;;;11.70;99.90;11.50;102403.00;;;;5074676;28;20633;-74
2022/10/06 04:13:31;;;;;;;0.73;0.60;;;11.50;99.90;11.80;102421.00;;;;5075343;28;20201;-75
2022/10/06 04:16:39;;;;;;;0.20;0.20;;;11.40;99.90;11.30;102421.00;;;;5074229;28;20246;-75
2022/10/06 04:19:43;;;;;;;0.20;0.20;;;11.30;99.90;11.40;102411.00;;;;5057464;28;20247;-75
2022/10/06 04:23:07;;;;;;;0.23;0.23;;;11.30;99.90;11.70;102412.00;;;;5057300;28;20189;-75
2022/10/06 04:27:26;;;;;;;0.20;0.20;;;11.30;99.90;11.40;102443.00;;;;5057921;28;20238;-75
2022/10/06 04:30:00;;;;;;;0.50;0.50;;;11.50;99.90;11.50;102386.00;;;;5070745;28;20189;-74
2022/10/06 04:33:10;;;;;;;0.20;0.20;;;11.30;99.90;11.30;102386.00;;;;5073674;28;20240;-74
2022/10/06 04:36:02;;;;;;;0.20;0.20;;;11.30;99.90;11.30;102446.00;;;;5073550;28;20204;-74
2022/10/06 04:39:09;;;;;;;0.20;0.20;;;11.30;99.90;11.50;102459.00;;;;5057121;28;20208;-74
2022/10/06 04:42:02;;;;;;;2.47;0.63;;;11.30;99.90;11.40;102403.00;;;;5073577;28;20189;-74
2022/10/06 04:44:42;;;;;;;0.50;0.43;;;11.30;99.90;11.30;102462.00;;;;4996400;28;20199;-74
2022/10/06 04:47:08;;;;;;;0.70;0.70;;;11.30;99.90;11.10;102481.00;;;;4997305;28;20192;-74
2022/10/06 04:50:14;;;;;;;6.17;0.80;;;11.10;99.90;11.00;102459.00;;;;5046059;28;20197;-75
2022/10/06 04:53:24;;;;;;;0.30;0.30;;;11.10;99.90;11.20;102490.00;;;;5071405;28;20213;-74
2022/10/06 04:56:43;;;;;;;0.30;0.30;;;11.10;99.90;11.00;102497.00;;;;5073496;28;20243;-75
2022/10/06 05:03:05;;;;;;;1.30;1.20;;;11.00;99.90;11.10;102499.00;;;;5073096;28;20227;-76
2022/10/06 05:06:01;;;;;;;0.30;0.30;;;11.00;99.90;11.00;102498.00;;;;5073125;28;20193;-75
2022/10/06 05:08:35;;;;;;;1.17;1.07;;;11.00;99.90;11.30;102503.00;;;;5073098;28;20180;-73
2022/10/06 05:11:33;;;;;;;0.67;0.67;;;11.10;99.90;11.20;102506.00;;;;5056740;28;20220;-75
2022/10/06 05:13:59;;;;;;;0.50;0.50;;;11.10;99.90;11.20;102502.00;;;;5068092;28;20297;-78
2022/10/06 05:16:49;;;;;;;2.30;2.10;;;11.10;99.90;11.70;102512.00;;;;5056286;28;20608;-78
2022/10/06 05:19:29;;;;;;;0.30;0.30;;;11.20;99.90;11.40;102449.00;;;;5056431;28;20201;-75
2022/10/06 05:22:13;;;;;;;0.60;0.60;;;11.20;99.90;11.10;102518.00;;;;5073086;28;20695;-76
2022/10/06 05:24:59;;;;;;;0.20;0.20;;;11.20;99.90;11.40;102516.00;;;;5055971;28;20292;-75
2022/10/06 05:27:34;;;;;;;0.93;0.83;;;11.10;99.90;11.30;102504.00;;;;5088929;28;20189;-75
2022/10/06 05:34:10;;;;;;;2.00;1.03;;;11.20;99.90;11.20;102515.00;;;;5073071;28;20221;-76
2022/10/06 05:37:01;;;;;;;0.20;0.20;;;11.20;99.90;10.90;102510.00;;;;5072698;28;20173;-76
2022/10/06 05:39:47;;;;;;;0.30;0.30;;;10.90;99.90;11.40;102516.00;;;;5056124;28;20192;-76
2022/10/06 05:42:58;;;;;;;0.30;0.30;;;11.10;99.90;11.20;102537.00;;;;5055895;28;20177;-76
2022/10/06 05:45:57;;;;;;;0.30;0.30;;;11.10;99.90;11.50;102538.00;;;;5072587;28;20185;-76
2022/10/06 05:49:05;;;;;;;4.40;1.03;;;11.10;99.90;11.00;102541.00;;;;5072585;28;20184;-75
2022/10/06 05:52:27;;;;;;;0.30;0.30;;;11.00;99.90;10.90;102526.00;;;;5055897;28;20218;-76
2022/10/06 05:55:20;;;;;;;0.30;0.30;;;10.90;99.90;11.10;102545.00;;;;5072405;28;20189;-75
2022/10/06 05:58:21;;;;;;;0.20;0.20;;;10.90;99.90;11.10;102549.00;;;;5063009;28;20199;-76
2022/10/06 06:01:24;;;;;;;0.30;0.30;;;10.80;99.90;11.00;102564.00;;;;5072159;28;20177;-75
2022/10/06 06:04:20;;;;;;;0.20;0.20;;;10.90;99.90;11.50;102561.00;;;;5089049;28;20284;-75
2022/10/06 06:07:25;;;;;;;0.30;0.30;;;11.00;99.90;11.60;102557.00;;;;5072673;28;20215;-75
2022/10/06 06:10:51;;;;;;;0.30;0.30;;;11.10;99.90;11.80;102564.00;;;;5072151;28;20209;-75
2022/10/06 06:14:17;;;;;;;0.40;0.40;;;11.30;99.90;11.90;102551.00;;;;5072752;28;20667;-75
2022/10/06 06:17:23;;;;;;;0.30;0.30;;;11.50;99.90;11.00;102586.00;;;;5071989;28;20184;-76
2022/10/06 06:20:32;;;;;;;0.30;0.30;;;11.20;99.90;11.50;102587.00;;;;5055056;28;20177;-76
2022/10/06 06:23:45;;;;;;;0.30;0.30;;;11.20;99.90;11.40;102601.00;;;;5072008;28;20377;-77
2022/10/06 06:26:42;;;;;;;0.20;0.20;;;11.10;99.90;11.10;102596.00;;;;5071616;28;20701;-76
2022/10/06 06:29:46;;;;;;;0.30;0.30;;;11.00;99.90;11.90;102599.00;;;;5071905;28;20259;-76
2022/10/06 06:36:12;;;;;;;0.30;0.30;;;11.30;99.90;12.20;102557.00;;;;5072019;28;20264;-75
2022/10/06 06:39:18;;;;;;;0.30;0.30;;;11.50;99.90;12.10;102602.00;;;;5071558;28;20551;-76
2022/10/06 06:42:28;;;;;;;0.20;0.20;;;11.70;99.90;11.70;102601.00;;;;5072160;28;20181;-75
2022/10/06 06:45:19;;;;;;;0.20;0.20;;;11.60;99.90;12.40;102609.00;;;;5071214;28;20188;-75
2022/10/06 06:47:47;;;;;;;0.30;0.30;;;11.60;99.90;12.40;102563.00;;;;5073004;28;20184;-75
2022/10/06 06:50:57;;;;;;;1.07;1.07;;;11.80;99.90;12.40;102620.00;;;;5088657;28;20191;-74
2022/10/06 06:54:07;;;;;;;0.63;0.63;;;12.00;99.90;12.30;102629.00;;;;5072609;28;20544;-75
2022/10/06 06:57:01;;;;;;;0.30;0.30;;;12.10;99.90;11.50;102629.00;;;;5076150;28;20182;-76
2022/10/06 07:00:08;;;;;;;1.23;1.20;;;11.70;99.90;12.00;102628.00;;;;5076794;28;20183;-76
2022/10/06 07:03:11;;;;;;;0.30;0.30;;;11.80;99.90;11.70;102631.00;;;;5075657;28;20199;-75
2022/10/06 07:06:10;;;;;;;0.20;0.20;;;11.70;99.90;11.70;102642.00;;;;5075522;28;20181;-75
2022/10/06 07:09:05;;;;;;;1.03;0.60;;;11.60;99.90;11.90;102573.00;;;;5059489;28;20187;-73
2022/10/06 07:12:24;;;;;;;1.63;1.00;;;11.80;99.90;12.00;102648.00;;;;5075558;28;20203;-75
2022/10/06 07:25:42;;;;;;;0.20;0.20;;;11.90;99.90;12.40;102672.00;;;;5076342;28;20688;-75
2022/10/06 07:28:48;;;;;;;12.17;1.50;;;12.20;99.90;12.20;102683.00;;;;5074883;28;20600;-76
2022/10/06 07:31:55;;;;;;;2.60;1.13;;;12.30;99.90;12.40;102679.00;;;;5058309;28;20226;-77
2022/10/06 07:34:21;;;;;;;0.90;0.90;;;12.30;99.90;12.90;102709.00;;;;5076247;28;20212;-76
2022/10/06 07:36:52;;;;;;;0.20;0.20;;;12.70;99.90;13.20;102700.00;;;;5074917;28;20709;-81
2022/10/06 07:39:19;;;;;;;0.20;0.20;;;13.00;99.90;13.40;102701.00;;;;5074691;28;20289;-82
2022/10/06 07:41:45;;;;;;;0.20;0.20;;;13.10;99.90;13.40;102671.00;;;;5074385;28;20555;-80
2022/10/06 07:44:11;;;;;;;0.20;0.20;;;13.50;99.90;14.60;102728.00;;;;5075670;28;20276;-82
2022/10/06 07:46:43;;;;;;;0.20;0.20;;;14.00;99.90;13.40;102668.00;;;;5075989;28;20601;-81
2022/10/06 07:49:09;;;;;;;1.20;1.20;;;13.60;99.90;14.40;102719.00;;;;5076233;28;20189;-83
2022/10/06 07:51:35;;;;;;;2.67;0.67;;;13.80;99.90;14.50;102733.00;;;;5074617;28;20266;-78
2022/10/06 07:54:01;;;;;;;0.17;0.17;;;14.20;99.90;14.10;102726.00;;;;5074712;28;20271;-81
2022/10/06 07:56:35;;;;;;;11.60;0.60;;;14.20;99.90;13.50;102718.00;;;;5074852;28;20184;-81
2022/10/06 07:59:01;;;;;;;0.20;0.20;;;13.90;99.90;14.70;102680.00;;;;5074609;28;20182;-81
2022/10/06 08:01:30;;;;;;;0.20;0.20;;;14.20;99.90;14.80;102713.00;;;;5073277;28;20248;-81
2022/10/06 08:03:56;;;;;;;0.20;0.20;;;14.50;99.90;15.00;102762.00;;;;5075300;28;20175;-81
2022/10/06 08:06:23;;;;;;;1.83;0.67;;;14.60;99.90;15.50;102775.00;;;;5074155;28;20206;-82
2022/10/06 08:08:53;;;;;;;0.70;0.70;;;15.10;99.90;15.30;102769.00;;;;5090963;28;20200;-82
2022/10/06 08:11:21;;;;;;;0.20;0.20;;;15.00;99.90;14.40;102689.00;;;;5074105;28;20285;-82
2022/10/06 08:13:47;;;;;;;0.20;0.20;;;14.40;99.90;14.60;102747.00;;;;5074610;28;20250;-83
2022/10/06 08:16:18;;;;;;;0.83;0.47;;;14.40;99.90;15.20;102772.00;;;;5073955;28;20201;-83
2022/10/06 08:18:49;;;;;;;0.20;0.20;;;14.80;99.90;15.00;102752.00;;;;5073975;28;20201;-83
2022/10/06 08:21:20;;;;;;;0.20;0.20;;;14.70;99.90;15.70;102773.00;;;;5074454;28;20196;-83
2022/10/06 08:23:50;;;;;;;0.23;0.23;;;15.10;99.90;15.40;102786.00;;;;5074032;28;20182;-82
2022/10/06 08:26:34;;;;;;;0.20;0.20;;;15.40;99.90;17.00;102787.00;;;;5074235;28;20271;-83
2022/10/06 08:29:08;;;;;;;0.20;0.20;;;16.00;99.90;15.40;102790.00;;;;5072586;28;20206;-83
2022/10/06 08:31:36;;;;;;;0.10;0.10;;;15.60;99.90;15.90;102780.00;;;;5074834;28;20200;-84
2022/10/06 08:34:25;;;;;;;0.20;0.20;;;15.50;99.90;15.80;102794.00;;;;5057685;28;20186;-84
2022/10/06 08:36:53;;;;;;;0.20;0.20;;;15.70;99.90;15.70;102805.00;;;;5073449;28;20641;-82
2022/10/06 08:39:22;;;;;;;0.10;0.10;;;15.50;99.90;15.70;102797.00;;;;5074744;28;20173;-83
2022/10/06 08:41:52;;;;;;;0.20;0.20;;;15.50;99.90;17.30;102813.00;;;;5090631;28;20266;-85
2022/10/06 08:44:29;;;;;;;1.07;0.70;;;16.20;99.90;18.30;102861.00;;;;5073747;28;20223;-83
2022/10/06 08:47:21;;;;;;;0.20;0.20;;;17.20;99.90;19.60;102839.00;;;;5089990;28;20189;-68
2022/10/06 08:49:50;;;;;;;3.33;1.00;;;18.20;99.90;18.20;102891.00;;;;5073663;28;20638;-73
2022/10/06 08:52:40;;;;;;;0.40;0.40;;;18.00;99.90;15.90;102808.00;;;;5073332;28;20200;-73
2022/10/06 08:55:46;;;;;;;0.20;0.20;;;16.80;99.90;15.90;102840.00;;;;5074473;28;20590;-73
2022/10/06 08:58:45;;;;;;;0.60;0.60;;;15.80;99.90;17.00;102858.00;;;;5059589;28;20199;-73
2022/10/06 09:01:37;;;;;;;1.17;0.77;;;16.00;99.90;17.10;102848.00;;;;5074890;28;20181;-73
2022/10/06 09:04:06;;;;;;;7.63;1.63;;;16.40;99.90;16.30;102862.00;;;;5074234;28;20217;-72
2022/10/06 09:07:15;;;;;;;0.53;0.53;;;16.20;99.90;15.60;102862.00;;;;5072985;28;20176;-72
2022/10/06 09:10:06;;;;;;;2.03;0.60;;;15.70;99.90;16.70;102870.00;;;;5059540;28;20319;-73
2022/10/06 09:12:35;;;;;;;0.57;0.50;;;16.00;99.90;17.00;102901.00;;;;5074505;28;20200;-73
2022/10/06 09:15:53;;;;;;;5.43;1.50;;;16.40;99.90;17.00;102891.00;;;;5072977;28;20181;-73
2022/10/06 09:18:49;;;;;;;1.67;0.87;;;16.50;99.90;16.60;102889.00;;;;5062648;28;20208;-74
2022/10/06 09:21:25;;;;;;;1.03;0.97;;;16.40;99.90;17.20;102888.00;;;;5071070;28;20607;-71
2022/10/06 09:24:37;;;;;;;0.77;0.77;;;16.60;99.90;17.30;102913.00;;;;5071956;28;20571;-75
2022/10/06 09:27:27;;;;;;;0.10;0.10;;;16.80;99.90;18.60;102937.00;;;;5049611;28;20218;-73
2022/10/06 09:29:53;;;;;;;0.20;0.20;;;17.50;99.90;17.00;102924.00;;;;5072372;28;20585;-72
2022/10/06 09:32:24;;;;;;;2.00;1.13;;;17.00;99.90;16.50;102908.00;;;;5071753;28;20217;-72
2022/10/06 09:34:58;;;;;;;0.40;0.33;;;16.50;99.90;16.10;102907.00;;;;5054825;28;20269;-71
2022/10/06 09:37:25;;;;;;;7.40;1.03;;;16.20;99.90;16.60;102905.00;;;;5070872;28;20272;-72
2022/10/06 09:39:53;;;;;;;4.30;1.30;;;16.20;99.90;16.20;102907.00;;;;5054034;28;20235;-73
2022/10/06 09:42:29;;;;;;;1.10;0.67;;;16.00;99.90;16.20;102916.00;;;;5072414;28;20206;-72
2022/10/06 09:45:04;;;;;;;2.10;1.23;;;16.20;99.90;15.90;102911.00;;;;5072199;28;20176;-69
2022/10/06 09:47:43;;;;;;;0.40;0.40;;;16.00;99.90;16.50;102914.00;;;;5072557;28;20199;-72
2022/10/06 09:50:27;;;;;;;1.40;0.53;;;16.10;99.90;17.50;102917.00;;;;5072605;28;20259;-71
2022/10/06 09:53:07;;;;;;;0.60;0.50;;;16.70;99.90;17.80;102905.00;;;;5072202;28;20208;-71
2022/10/06 09:55:36;;;;;;;0.10;0.10;;;17.10;99.90;18.80;102946.00;;;;5067238;28;20186;-71
2022/10/06 09:58:36;;;;;;;2.23;0.80;;;17.70;99.90;17.10;102953.00;;;;5067869;28;20196;-71
2022/10/06 10:01:13;;;;;;;0.40;0.40;;;17.30;99.90;18.00;102876.00;;;;5057494;28;20559;-71
2022/10/06 10:03:50;;;;;;;0.50;0.50;;;17.30;99.90;18.10;102969.00;;;;5059070;28;20560;-71
2022/10/06 10:06:35;;;;;;;0.30;0.30;;;17.50;99.90;17.80;102979.00;;;;5055667;28;20277;-71
2022/10/06 10:09:25;;;;;;;0.73;0.50;;;17.40;99.90;17.50;102978.00;;;;5050935;28;20592;-72
2022/10/06 10:12:30;;;;;;;0.20;0.20;;;17.30;99.90;18.10;102965.00;;;;5052277;28;20208;-66
2022/10/06 10:15:02;;;;;;;2.93;1.07;;;17.20;99.90;18.30;102985.00;;;;5066444;28;20171;-70
2022/10/06 10:18:26;;;;;;;0.15;0.13;;;17.70;99.90;19.00;102982.00;;;;5044631;28;20235;-72
2022/10/06 10:33:53;;;;;;;0.10;0.10;;;16.80;99.90;17.60;102971.00;;;;5062890;28;20673;-71
2022/10/06 10:36:50;;;;;;;0.10;0.10;;;17.00;99.90;18.50;102989.00;;;;5064741;28;20199;-70
2022/10/06 10:39:42;;;;;;;0.10;0.10;;;17.70;99.90;18.80;102987.00;;;;5050512;28;20185;-71
2022/10/06 10:42:55;;;;;;;0.57;0.57;;;17.70;99.90;19.50;102993.00;;;;5048399;28;20193;-71
2022/10/06 10:45:32;;;;;;;0.37;0.37;;;18.50;99.90;20.10;103001.00;;;;5052431;28;20231;-71
2022/10/06 10:48:06;;;;;;;1.80;1.00;;;19.10;99.90;18.10;103016.00;;;;5052300;28;20187;-63
2022/10/06 10:51:00;;;;;;;0.33;0.33;;;18.40;99.90;17.20;103013.00;;;;5048842;28;20714;-71
2022/10/06 10:53:36;;;;;;;0.50;0.50;;;17.40;99.90;17.70;103008.00;;;;5049530;28;20179;-71
2022/10/06 10:56:25;;;;;;;1.63;0.97;;;17.10;99.90;18.00;103001.00;;;;5050077;28;20184;-71
2022/10/06 10:59:29;;;;;;;0.10;0.10;;;17.60;99.90;19.40;103003.00;;;;5048569;28;20200;-71
2022/10/06 11:02:11;;;;;;;2.47;1.40;;;18.30;99.90;18.50;103012.00;;;;5046317;28;20207;-71
2022/10/06 11:05:03;;;;;;;5.73;0.73;;;17.90;99.90;17.60;103010.00;;;;5048281;28;20176;-71
2022/10/06 11:07:49;;;;;;;0.30;0.30;;;17.50;99.90;17.70;103007.00;;;;5048730;28;20186;-70
2022/10/06 11:10:22;;;;;;;0.20;0.20;;;17.40;99.90;18.60;102994.00;;;;5048648;28;20283;-71
2022/10/06 11:13:26;;;;;;;1.53;0.30;;;17.70;99.90;19.50;102956.00;;;;5065400;28;20248;-71
2022/10/06 11:16:27;;;;;;;7.03;0.57;;;18.50;99.90;19.40;103007.00;;;;5065292;28;20186;-71
2022/10/06 11:19:48;;;;;;;0.10;0.10;;;18.80;99.90;19.00;103016.00;;;;5063982;28;20186;-71
2022/10/06 11:22:30;;;;;;;0.10;0.10;;;18.70;99.90;18.50;103014.00;;;;5035278;28;20210;-71
2022/10/06 11:25:21;;;;;;;0.30;0.30;;;18.50;99.90;20.10;103014.00;;;;5030252;28;20638;-71
2022/10/06 11:28:28;;;;;;;4.03;0.45;;;18.60;99.90;20.10;102998.00;;;;5029680;28;20187;-71
2022/10/06 11:31:15;;;;;;;0.10;0.10;;;19.10;99.90;19.70;103013.00;;;;5028443;28;20282;-71
2022/10/06 11:33:53;;;;;;;0.57;0.57;;;19.10;99.90;19.10;103010.00;;;;5035600;28;20289;-72
2022/10/06 11:36:53;;;;;;;0.30;0.30;;;18.90;99.90;18.50;103025.00;;;;5050368;28;20276;-70
2022/10/06 11:39:31;;;;;;;0.80;0.75;;;18.20;99.90;18.40;103018.00;;;;5035977;28;20232;-70
2022/10/06 11:42:51;;;;;;;0.40;0.40;;;18.00;99.90;17.60;103042.00;;;;5028166;28;20174;-70
2022/10/06 11:46:00;;;;;;;2.57;2.27;;;17.50;99.90;18.70;103036.00;;;;5025681;28;20688;-70
2022/10/06 11:48:29;;;;;;;4.00;1.50;;;17.50;99.90;18.90;103018.00;;;;5036174;28;20204;-71
2022/10/06 11:51:20;;;;;;;1.70;0.53;;;18.10;99.90;18.70;103015.00;;;;5033160;28;20190;-71
2022/10/06 11:53:46;;;;;;;0.30;0.30;;;18.20;99.90;19.50;103002.00;;;;5035648;28;20212;-71
2022/10/06 11:56:16;;;;;;;1.37;0.60;;;18.40;99.90;19.00;103023.00;;;;5034817;28;20267;-71
2022/10/06 11:58:50;;;;;;;0.10;0.10;;;18.40;99.90;18.20;103018.00;;;;5034667;28;20181;-71
2022/10/06 12:01:50;;;;;;;0.40;0.40;;;18.00;99.90;19.10;103007.00;;;;5035709;28;20710;-71
2022/10/06 12:04:17;;;;;;;1.00;0.33;;;18.40;99.90;20.30;102987.00;;;;5051145;28;20642;-72
2022/10/06 12:06:45;;;;;;;0.10;0.10;;;19.00;99.90;19.40;102990.00;;;;5051229;28;20171;-71
2022/10/06 12:09:29;;;;;;;1.10;0.57;;;18.90;99.90;19.30;102994.00;;;;5036027;28;20216;-71
2022/10/06 12:12:18;;;;;;;0.37;0.37;;;18.80;99.90;19.60;103004.00;;;;5050609;28;20224;-71
2022/10/06 12:14:58;;;;;;;0.53;0.53;;;18.80;99.90;19.40;102975.00;;;;5035940;28;20174;-71
2022/10/06 12:17:34;;;;;;;0.85;0.82;;;18.50;99.90;19.10;103014.00;;;;5035100;28;20213;-71
2022/10/06 12:20:41;;;;;;;0.83;0.83;;;18.50;99.90;18.20;103019.00;;;;5035445;28;20187;-69
2022/10/06 12:23:18;;;;;;;4.53;1.80;;;18.00;99.90;18.40;102967.00;;;;5035373;28;20189;-71
2022/10/06 12:26:18;;;;;;;0.10;0.10;;;18.10;99.90;20.40;102983.00;;;;5035740;28;20212;-73
2022/10/06 12:28:56;;;;;;;0.22;0.22;;;18.80;99.90;18.10;102934.00;;;;5034026;28;20269;-71
2022/10/06 12:32:14;;;;;;;4.70;1.50;;;18.20;99.90;19.50;102974.00;;;;5033606;28;20243;-71
2022/10/06 12:34:56;;;;;;;2.83;0.70;;;18.50;99.90;19.60;102971.00;;;;5035307;28;20272;-69
2022/10/06 12:37:28;;;;;;;0.20;0.20;;;19.10;99.90;19.60;102960.00;;;;5034561;28;20173;-72
2022/10/06 12:43:18;;;;;;;2.43;0.60;;;18.30;99.90;19.20;102941.00;;;;5034829;28;20254;-72
2022/10/06 12:46:21;;;;;;;0.37;0.30;;;18.50;99.90;18.60;102937.00;;;;5034599;28;20240;-71
2022/10/06 12:49:43;;;;;;;0.50;0.50;;;18.30;99.90;19.60;102924.00;;;;5034987;28;20181;-71
2022/10/06 12:52:19;;;;;;;0.17;0.17;;;18.60;99.90;19.00;102939.00;;;;5034602;28;20655;-72
2022/10/06 12:55:35;;;;;;;0.27;0.27;;;18.50;99.90;18.80;102965.00;;;;5034068;28;20208;-70
2022/10/06 12:58:48;;;;;;;0.10;0.10;;;18.00;99.90;19.10;102946.00;;;;5034454;28;20631;-70
2022/10/06 13:01:34;;;;;;;0.10;0.10;;;18.20;99.90;19.40;102942.00;;;;5021540;28;20202;-71
2022/10/06 13:04:43;;;;;;;0.20;0.20;;;18.30;99.90;19.10;102971.00;;;;5033542;28;20204;-70
2022/10/06 13:07:55;;;;;;;1.10;0.53;;;18.20;99.90;18.80;102943.00;;;;5029346;28;20191;-70
2022/10/06 13:11:11;;;;;;;0.20;0.20;;;18.10;99.90;19.60;102977.00;;;;5034534;28;20186;-70
2022/10/06 13:14:15;;;;;;;0.10;0.10;;;18.60;99.90;19.20;102989.00;;;;5016814;28;20592;-71
2022/10/06 13:17:39;;;;;;;0.40;0.40;;;18.30;99.90;18.90;102984.00;;;;5032496;28;20202;-71
2022/10/06 13:20:52;;;;;;;0.47;0.30;;;18.30;99.90;19.40;102988.00;;;;5034793;28;20609;-70
2022/10/06 13:24:27;;;;;;;0.30;0.30;;;18.40;99.90;19.50;102988.00;;;;5013653;28;20208;-71
2022/10/06 13:27:48;;;;;;;2.57;0.83;;;18.50;99.90;18.90;102968.00;;;;5013267;28;20221;-71